Valiant — WCY6766 — position and weather

sailwx.info

Track history (hours):
 
Tides and Currents Weather Stations Pressure Air Temp Water Temp Dewpoint Dewpoint Depression Visibility Wind Speed Wind Dir Waves Ship Positions

Valiant

Owner: PENN MARITIME INC, SEATTLE, WA. More information available from US FCC via Universal Licensing System and Coast Guard Vessel Documentation Center.

Last reported at 2015-Mar-04 01:33 UTC. Time now 2015-Mar-05 16:13 UTC.
Position N 29°23' W 094°49'.

Length 165 m; draft 6.5 m.

Type: Cargo ship. MMSI: 369350000.

Date/timePositionNaut miles runAvg speedWind from/ knotsBaromVisibWave heightAir tempDewpointWater temp
2015-Mar-04 01:33N 29°23' W 094°49'9 8.8
2015-Mar-04 00:33N 29°31' W 094°53'9 9.4
2015-Mar-03 23:33N 29°39' W 094°58'8 7.8
2015-Mar-03 22:33N 29°45' W 095°04'3 3.1
2015-Mar-03 21:34N 29°44' W 095°07'0 0.0
2015-Mar-03 14:28N 29°44' W 095°07'0 0.0
2015-Mar-02 16:21N 29°44' W 095°07'0 0.0
2015-Mar-02 14:34N 29°44' W 095°07'0 0.0
2015-Mar-01 14:27N 29°44' W 095°07'0 0.0
2015-Mar-01 13:13N 29°44' W 095°07'0 0.0
2015-Mar-01 12:15N 29°44' W 095°07'0 0.0
2015-Mar-01 11:20N 29°44' W 095°07'0 0.0
2015-Mar-01 10:22N 29°44' W 095°07'0 0.0
2015-Mar-01 07:28N 29°44' W 095°07'0 0.0
2015-Mar-01 03:20N 29°44' W 095°07'0 0.0
2015-Mar-01 02:28N 29°44' W 095°07'0 0.0
2015-Mar-01 01:24N 29°44' W 095°07'0 0.0
2015-Mar-01 00:28N 29°44' W 095°07'0 0.0
2015-Feb-28 23:27N 29°44' W 095°07'0 0.0
2015-Feb-28 22:34N 29°44' W 095°07'0 0.0
2015-Feb-28 21:19N 29°44' W 095°07'1 1.2
2015-Feb-28 20:30N 29°45' W 095°06'6 6.6
2015-Feb-28 19:33N 29°42' W 094°60'1010.4
2015-Feb-28 18:34N 29°33' W 094°54'14 9.6
2015-Feb-28 17:04N 29°21' W 094°45'0 0.0
2015-Feb-27 23:31N 29°21' W 094°45'0 0.0
2015-Feb-27 21:23N 29°21' W 094°45'0 0.0
2015-Feb-27 20:12N 29°21' W 094°45'  
Track history (hours):
 
Tides and Currents Weather Stations Pressure Air Temp Water Temp Dewpoint Dewpoint Depression Visibility Wind Speed Wind Dir Waves Ship Positions

Valiant

Owner: PENN MARITIME INC, SEATTLE, WA. More information available from US FCC via Universal Licensing System and Coast Guard Vessel Documentation Center.

Last reported at 2015-Mar-04 01:33 UTC. Time now 2015-Mar-05 16:13 UTC.
Position N 29°23' W 094°49'.

Length 165 m; draft 6.5 m.

Type: Cargo ship. MMSI: 369350000.

Date/timePositionNaut miles runAvg speedWind from/ knotsBaromVisibWave heightAir tempDewpointWater temp
2015-Mar-04 01:33N 29°23' W 094°49'9 8.8
2015-Mar-04 00:33N 29°31' W 094°53'9 9.4
2015-Mar-03 23:33N 29°39' W 094°58'8 7.8
2015-Mar-03 22:33N 29°45' W 095°04'3 3.1
2015-Mar-03 21:34N 29°44' W 095°07'0 0.0
2015-Mar-03 14:28N 29°44' W 095°07'0 0.0
2015-Mar-02 16:21N 29°44' W 095°07'0 0.0
2015-Mar-02 14:34N 29°44' W 095°07'0 0.0
2015-Mar-01 14:27N 29°44' W 095°07'0 0.0
2015-Mar-01 13:13N 29°44' W 095°07'0 0.0
2015-Mar-01 12:15N 29°44' W 095°07'0 0.0
2015-Mar-01 11:20N 29°44' W 095°07'0 0.0
2015-Mar-01 10:22N 29°44' W 095°07'0 0.0
2015-Mar-01 07:28N 29°44' W 095°07'0 0.0
2015-Mar-01 03:20N 29°44' W 095°07'0 0.0
2015-Mar-01 02:28N 29°44' W 095°07'0 0.0
2015-Mar-01 01:24N 29°44' W 095°07'0 0.0
2015-Mar-01 00:28N 29°44' W 095°07'0 0.0
2015-Feb-28 23:27N 29°44' W 095°07'0 0.0
2015-Feb-28 22:34N 29°44' W 095°07'0 0.0
2015-Feb-28 21:19N 29°44' W 095°07'1 1.2
2015-Feb-28 20:30N 29°45' W 095°06'6 6.6
2015-Feb-28 19:33N 29°42' W 094°60'1010.4
2015-Feb-28 18:34N 29°33' W 094°54'14 9.6
2015-Feb-28 17:04N 29°21' W 094°45'0 0.0
2015-Feb-27 23:31N 29°21' W 094°45'0 0.0
2015-Feb-27 21:23N 29°21' W 094°45'0 0.0
2015-Feb-27 20:12N 29°21' W 094°45'  

Dump ship's entire track history